Time;durP1;ratioP1;P1;durP2;ratioP2;P2;SDS_P1;SDS_P2;PMS_P1;PMS_P2;Temp;Humidity;BMP_temperature;BMP_pressure;BME280_temperature;BME280_humidity;BME280_pressure;Samples;Min_cycle;Max_cycle;Signal;HPM_P1;HPM_P2
2023/08/30 00:00:43;;;;;;;1.73;1.63;;;11.50;99.90;;;;;;4896445;29;20041;-81
2023/08/30 00:03:08;;;;;;;3.05;1.83;;;11.50;99.90;;;;;;4906873;29;20051;-82
2023/08/30 00:05:39;;;;;;;3.70;1.60;;;11.40;99.90;;;;;;4904600;29;20045;-80
2023/08/30 00:08:05;;;;;;;2.83;1.70;;;11.40;99.90;;;;;;4909671;29;20025;-83
2023/08/30 00:10:31;;;;;;;5.03;1.80;;;11.40;99.90;;;;;;4906992;29;20036;-80
2023/08/30 00:12:57;;;;;;;3.20;1.50;;;11.40;99.90;;;;;;4904560;29;20049;-81
2023/08/30 00:15:23;;;;;;;6.00;1.98;;;11.40;99.90;;;;;;4914424;29;20060;-80
2023/08/30 00:17:51;;;;;;;4.22;1.60;;;11.40;99.90;;;;;;4907404;29;20044;-80
2023/08/30 00:20:17;;;;;;;3.03;1.55;;;11.40;99.90;;;;;;4897505;29;20112;-81
2023/08/30 00:22:43;;;;;;;5.22;1.75;;;11.40;99.90;;;;;;4900279;29;20419;-83
2023/08/30 00:25:09;;;;;;;1.83;1.67;;;11.40;99.90;;;;;;4903877;29;20127;-80
2023/08/30 00:27:35;;;;;;;1.50;1.40;;;11.40;99.90;;;;;;4902539;29;20060;-78
2023/08/30 00:30:00;;;;;;;3.08;1.63;;;11.40;99.90;;;;;;4905300;29;20040;-78
2023/08/30 00:32:47;;;;;;;1.55;1.45;;;11.30;99.90;;;;;;4896805;29;20060;-81
2023/08/30 00:35:13;;;;;;;1.40;1.30;;;11.40;99.90;;;;;;4912103;29;20062;-81
2023/08/30 00:37:38;;;;;;;1.77;1.65;;;11.40;99.90;;;;;;4905481;29;20061;-80
2023/08/30 00:40:06;;;;;;;1.60;1.50;;;11.40;99.90;;;;;;4915004;29;20029;-79
2023/08/30 00:42:32;;;;;;;4.35;1.40;;;11.40;99.90;;;;;;4913175;29;20042;-81
2023/08/30 00:44:58;;;;;;;1.77;1.67;;;11.30;99.90;;;;;;4905803;29;20040;-81
2023/08/30 00:47:23;;;;;;;3.97;2.83;;;11.40;99.90;;;;;;4900503;29;20464;-81
2023/08/30 00:49:50;;;;;;;1.75;1.50;;;11.30;99.90;;;;;;4897406;29;20084;-81
2023/08/30 00:52:17;;;;;;;1.98;1.83;;;11.40;99.90;;;;;;4901775;29;20024;-80
2023/08/30 00:54:42;;;;;;;2.50;1.70;;;11.40;99.90;;;;;;4905889;29;20634;-82
2023/08/30 00:57:09;;;;;;;2.20;1.52;;;11.40;99.90;;;;;;4917185;29;20048;-80
2023/08/30 00:59:35;;;;;;;6.93;1.75;;;11.30;99.90;;;;;;4911587;29;20036;-80
2023/08/30 01:02:01;;;;;;;2.88;1.70;;;11.30;99.90;;;;;;4906136;29;20041;-80
2023/08/30 01:04:27;;;;;;;1.75;1.65;;;11.30;99.90;;;;;;4903666;29;20420;-80
2023/08/30 01:06:53;;;;;;;1.85;1.63;;;11.30;99.90;;;;;;4902317;29;20044;-79
2023/08/30 01:09:19;;;;;;;1.83;1.60;;;11.40;99.90;;;;;;4911846;29;20041;-81
2023/08/30 01:12:02;;;;;;;2.67;1.63;;;11.30;99.90;;;;;;4897353;29;20442;-81
2023/08/30 01:14:52;;;;;;;3.00;1.70;;;11.40;99.90;;;;;;4900811;29;20536;-78
2023/08/30 01:17:20;;;;;;;3.05;1.73;;;11.40;99.90;;;;;;4910249;29;20040;-81
2023/08/30 01:20:00;;;;;;;1.73;1.27;;;11.40;99.90;;;;;;4901331;29;20047;-80
2023/08/30 01:22:57;;;;;;;2.88;1.42;;;11.40;99.90;;;;;;4911478;29;20040;-81
2023/08/30 01:25:29;;;;;;;1.48;1.38;;;11.30;99.90;;;;;;4900766;29;20445;-78
2023/08/30 01:27:56;;;;;;;3.90;1.48;;;11.30;99.90;;;;;;4908135;29;20032;-81
2023/08/30 01:30:22;;;;;;;2.50;1.52;;;11.30;99.90;;;;;;4896826;29;20029;-79
2023/08/30 01:32:49;;;;;;;2.63;1.48;;;11.30;99.90;;;;;;4900939;29;20044;-78
2023/08/30 01:35:17;;;;;;;2.45;1.40;;;11.20;99.90;;;;;;4921836;29;20076;-80
2023/08/30 01:37:46;;;;;;;1.58;1.48;;;11.20;99.90;;;;;;4907210;29;20043;-81
2023/08/30 01:40:15;;;;;;;3.67;1.67;;;11.20;99.90;;;;;;4896054;29;20037;-82
2023/08/30 01:42:44;;;;;;;2.55;1.73;;;11.20;99.90;;;;;;4896053;29;20123;-81
2023/08/30 01:45:13;;;;;;;1.65;1.55;;;11.20;99.90;;;;;;4911833;29;20040;-81
2023/08/30 01:47:42;;;;;;;2.53;1.73;;;11.20;99.90;;;;;;4899877;29;20032;-80
2023/08/30 01:50:09;;;;;;;1.80;1.70;;;11.20;99.90;;;;;;4897509;29;20124;-80
2023/08/30 01:52:36;;;;;;;2.45;1.70;;;11.10;99.90;;;;;;4903326;29;20489;-80
2023/08/30 01:55:03;;;;;;;1.92;1.70;;;11.10;99.90;;;;;;4904058;29;20044;-80
2023/08/30 01:57:30;;;;;;;2.88;2.60;;;11.10;99.90;;;;;;4897916;29;20084;-80
2023/08/30 01:59:56;;;;;;;7.13;1.90;;;11.10;99.90;;;;;;4893934;29;20124;-80
2023/08/30 02:02:22;;;;;;;2.50;1.90;;;11.10;99.90;;;;;;4917496;29;20099;-80
2023/08/30 02:04:47;;;;;;;1.90;1.80;;;11.10;99.90;;;;;;4904976;29;20092;-83
2023/08/30 02:07:32;;;;;;;1.75;1.65;;;11.10;99.90;;;;;;4901382;29;20037;-80
2023/08/30 02:10:01;;;;;;;2.25;2.05;;;11.10;99.90;;;;;;4894407;29;20041;-81
2023/08/30 02:12:49;;;;;;;2.35;1.75;;;11.10;99.90;;;;;;4903356;29;20151;-81
2023/08/30 02:15:18;;;;;;;1.75;1.65;;;11.10;99.90;;;;;;4913779;29;20087;-79
2023/08/30 02:17:46;;;;;;;2.40;2.20;;;11.10;99.90;;;;;;4895711;29;20545;-80
2023/08/30 02:20:12;;;;;;;2.30;2.10;;;11.10;99.90;;;;;;4893780;29;20394;-81
2023/08/30 02:22:38;;;;;;;2.13;1.92;;;11.10;99.90;;;;;;4903171;29;20057;-81
2023/08/30 02:25:07;;;;;;;1.90;1.80;;;11.10;99.90;;;;;;4917179;29;20043;-80
2023/08/30 02:27:34;;;;;;;1.73;1.63;;;11.10;99.90;;;;;;4908315;29;20061;-80
2023/08/30 02:30:02;;;;;;;3.40;1.58;;;11.10;99.90;;;;;;4914821;29;20104;-80
2023/08/30 02:32:28;;;;;;;3.33;1.70;;;11.00;99.90;;;;;;4903982;29;20096;-79
2023/08/30 02:34:56;;;;;;;1.50;1.40;;;11.00;99.90;;;;;;4910402;29;20501;-81
2023/08/30 02:37:22;;;;;;;3.08;1.70;;;11.00;99.90;;;;;;4900703;29;20040;-81
2023/08/30 02:39:50;;;;;;;1.70;1.50;;;11.00;99.90;;;;;;4911449;29;20064;-79
2023/08/30 02:42:15;;;;;;;2.13;1.70;;;11.00;99.90;;;;;;4907451;29;20039;-81
2023/08/30 02:44:41;;;;;;;2.85;1.30;;;10.90;99.90;;;;;;4898280;29;20049;-80
2023/08/30 02:47:08;;;;;;;2.38;1.67;;;10.90;99.90;;;;;;4910932;29;20056;-82
2023/08/30 02:49:33;;;;;;;4.93;1.60;;;10.90;99.90;;;;;;4902104;29;20063;-81
2023/08/30 02:51:59;;;;;;;1.30;1.20;;;10.90;99.90;;;;;;4902364;29;20052;-82
2023/08/30 02:54:25;;;;;;;2.47;1.48;;;10.90;99.90;;;;;;4897485;29;20046;-83
2023/08/30 02:56:51;;;;;;;3.97;1.50;;;10.90;99.90;;;;;;4920069;29;20092;-81
2023/08/30 02:59:17;;;;;;;1.42;1.35;;;10.90;99.90;;;;;;4915714;29;20040;-82
2023/08/30 03:01:44;;;;;;;1.63;1.23;;;10.80;99.90;;;;;;4914164;29;20100;-81
2023/08/30 03:04:11;;;;;;;3.90;1.45;;;10.80;99.90;;;;;;4917931;29;20033;-82
2023/08/30 03:06:37;;;;;;;4.18;1.77;;;10.80;99.90;;;;;;4900243;29;20108;-81
2023/08/30 03:09:05;;;;;;;3.20;1.80;;;10.70;99.90;;;;;;4896490;29;20037;-81
2023/08/30 03:11:34;;;;;;;4.00;1.58;;;10.70;99.90;;;;;;4909931;29;20040;-81
2023/08/30 03:14:00;;;;;;;1.70;1.50;;;10.70;99.90;;;;;;4902694;29;20033;-78
2023/08/30 03:16:25;;;;;;;2.00;1.73;;;10.70;99.90;;;;;;4904670;29;20028;-81
2023/08/30 03:18:52;;;;;;;5.50;1.70;;;10.70;99.90;;;;;;4911285;29;20102;-81
2023/08/30 03:21:18;;;;;;;1.90;1.80;;;10.70;99.90;;;;;;4897380;29;20069;-80
2023/08/30 03:23:44;;;;;;;2.05;1.85;;;10.70;99.90;;;;;;4911505;29;20036;-82
2023/08/30 03:26:15;;;;;;;2.80;2.33;;;10.80;99.90;;;;;;4907279;29;20036;-82
2023/08/30 03:28:42;;;;;;;3.10;2.53;;;10.70;99.90;;;;;;4901044;29;20088;-79
2023/08/30 03:31:19;;;;;;;2.00;1.90;;;10.80;99.90;;;;;;4901346;29;20029;-81
2023/08/30 03:33:46;;;;;;;2.38;2.17;;;10.80;99.90;;;;;;4920672;29;20040;-81
2023/08/30 03:36:18;;;;;;;3.47;2.03;;;10.80;99.90;;;;;;4918286;29;20033;-81
2023/08/30 03:38:45;;;;;;;3.38;2.20;;;10.80;99.90;;;;;;4909045;29;20048;-81
2023/08/30 03:41:11;;;;;;;2.97;2.30;;;10.80;99.90;;;;;;4892769;29;20036;-81
2023/08/30 03:43:38;;;;;;;2.40;2.13;;;10.80;99.90;;;;;;4912922;29;20037;-81
2023/08/30 03:46:04;;;;;;;3.75;2.25;;;10.80;99.90;;;;;;4922624;29;20539;-82
2023/08/30 03:48:31;;;;;;;3.83;2.10;;;10.80;99.90;;;;;;4910839;29;20036;-80
2023/08/30 03:50:58;;;;;;;2.47;2.28;;;10.80;99.90;;;;;;4896151;29;20053;-80
2023/08/30 03:53:24;;;;;;;2.28;2.17;;;10.80;99.90;;;;;;4909084;29;20057;-82
2023/08/30 03:55:50;;;;;;;2.60;2.33;;;10.80;99.90;;;;;;4901854;29;20096;-81
2023/08/30 03:58:19;;;;;;;2.63;2.20;;;10.80;99.90;;;;;;4913043;29;20036;-80
2023/08/30 04:00:46;;;;;;;1.75;1.65;;;10.80;99.90;;;;;;4911320;29;20064;-81
2023/08/30 04:03:14;;;;;;;2.63;2.25;;;10.80;99.90;;;;;;4916095;29;20037;-81
2023/08/30 04:05:40;;;;;;;2.00;1.90;;;10.70;99.90;;;;;;4908199;29;20100;-82
2023/08/30 04:08:07;;;;;;;1.83;1.50;;;10.70;99.90;;;;;;4908520;29;20048;-81
2023/08/30 04:10:38;;;;;;;3.60;1.20;;;10.70;99.90;;;;;;4912922;29;20083;-80
2023/08/30 04:13:04;;;;;;;2.38;2.17;;;10.70;99.90;;;;;;4902605;29;20037;-81
2023/08/30 04:15:38;;;;;;;1.70;1.60;;;10.60;99.90;;;;;;4912360;29;20028;-80
2023/08/30 04:18:05;;;;;;;1.85;1.75;;;10.60;99.90;;;;;;4898185;29;20032;-82
2023/08/30 04:20:32;;;;;;;1.77;1.67;;;10.60;99.90;;;;;;4902702;29;20044;-80
2023/08/30 04:23:01;;;;;;;3.22;1.95;;;10.60;99.90;;;;;;4910745;29;20773;-81
2023/08/30 04:25:28;;;;;;;1.80;1.70;;;10.50;99.90;;;;;;4920504;29;20087;-80
2023/08/30 04:27:54;;;;;;;2.15;2.00;;;10.50;99.90;;;;;;4921289;29;20083;-81
2023/08/30 04:30:22;;;;;;;4.10;1.80;;;10.50;99.90;;;;;;4911362;29;20028;-81
2023/08/30 04:32:48;;;;;;;2.95;2.00;;;10.50;99.90;;;;;;4912110;29;20041;-82
2023/08/30 04:35:14;;;;;;;3.45;1.77;;;10.50;99.90;;;;;;4902571;29;20043;-81
2023/08/30 04:37:42;;;;;;;2.40;2.13;;;10.50;99.90;;;;;;4910352;29;20059;-82
2023/08/30 04:40:09;;;;;;;2.05;1.88;;;10.50;99.90;;;;;;4906235;29;20066;-80
2023/08/30 04:42:36;;;;;;;2.30;2.10;;;10.50;99.90;;;;;;4901162;29;20052;-81
2023/08/30 04:45:03;;;;;;;2.42;2.30;;;10.50;99.90;;;;;;4915212;29;20037;-79
2023/08/30 04:47:51;;;;;;;2.10;1.88;;;10.50;99.90;;;;;;4904402;29;20051;-81
2023/08/30 04:50:17;;;;;;;2.70;2.50;;;10.50;99.90;;;;;;4893346;29;20509;-80
2023/08/30 04:52:43;;;;;;;2.30;2.10;;;10.50;99.90;;;;;;4907772;29;20052;-81
2023/08/30 04:55:09;;;;;;;2.42;1.67;;;10.50;99.90;;;;;;4900323;29;20048;-81
2023/08/30 04:57:35;;;;;;;2.00;1.90;;;10.50;99.90;;;;;;4909999;29;20032;-81
2023/08/30 05:00:05;;;;;;;1.90;1.80;;;10.50;99.90;;;;;;4910278;29;20029;-81
2023/08/30 05:02:31;;;;;;;2.63;2.00;;;10.60;99.90;;;;;;4897874;29;20036;-81
2023/08/30 05:05:07;;;;;;;2.95;2.30;;;10.60;99.90;;;;;;4914963;29;20040;-80
2023/08/30 05:07:33;;;;;;;2.10;2.00;;;10.60;99.90;;;;;;4923973;29;20047;-80
2023/08/30 05:09:59;;;;;;;2.97;2.20;;;10.60;99.90;;;;;;4912877;29;20068;-81
2023/08/30 05:12:25;;;;;;;3.53;1.88;;;10.70;99.90;;;;;;4901870;29;20032;-80
2023/08/30 05:14:50;;;;;;;2.55;2.35;;;10.70;99.90;;;;;;4903713;29;20149;-81
2023/08/30 05:17:16;;;;;;;2.35;2.22;;;10.80;99.90;;;;;;4924878;29;20092;-81
2023/08/30 05:19:42;;;;;;;2.60;2.40;;;10.80;99.90;;;;;;4899448;29;20037;-81
2023/08/30 05:22:08;;;;;;;4.78;2.38;;;10.80;99.90;;;;;;4919353;29;20039;-81
2023/08/30 05:24:35;;;;;;;3.95;2.42;;;10.90;99.90;;;;;;4912696;29;20036;-81
2023/08/30 05:27:01;;;;;;;2.53;2.17;;;11.00;99.90;;;;;;4919019;29;20119;-81
2023/08/30 05:29:35;;;;;;;2.88;2.67;;;11.00;99.90;;;;;;4894769;29;20625;-80
2023/08/30 05:32:01;;;;;;;3.72;2.28;;;11.10;99.90;;;;;;4895187;29;20069;-81
2023/08/30 05:34:43;;;;;;;3.15;2.35;;;11.10;99.90;;;;;;4913377;29;20040;-80
2023/08/30 05:37:35;;;;;;;2.05;1.92;;;11.20;99.90;;;;;;4899093;29;20041;-79
2023/08/30 05:40:22;;;;;;;2.10;1.98;;;11.20;99.90;;;;;;4895515;29;20028;-79
2023/08/30 05:42:48;;;;;;;2.08;1.88;;;11.30;99.90;;;;;;4899278;29;20057;-80
2023/08/30 05:45:14;;;;;;;2.60;1.48;;;11.40;99.90;;;;;;4913796;29;20043;-81
2023/08/30 05:47:40;;;;;;;1.50;1.40;;;11.40;99.90;;;;;;4902245;29;20039;-79
2023/08/30 05:50:06;;;;;;;1.55;1.38;;;11.50;99.90;;;;;;4894885;29;20131;-80
2023/08/30 05:52:33;;;;;;;1.45;1.33;;;11.50;99.90;;;;;;4908598;29;20047;-80
2023/08/30 05:54:59;;;;;;;2.10;1.42;;;11.60;99.90;;;;;;4892065;29;20041;-81
2023/08/30 05:57:28;;;;;;;1.88;1.60;;;11.60;99.90;;;;;;4905414;29;20501;-79
2023/08/30 05:59:54;;;;;;;1.70;1.60;;;11.60;99.90;;;;;;4904344;29;20894;-80
2023/08/30 06:02:20;;;;;;;4.20;1.90;;;11.70;99.90;;;;;;4894909;29;20030;-80
2023/08/30 06:04:46;;;;;;;4.00;2.30;;;11.80;99.90;;;;;;4892907;29;20036;-80
2023/08/30 06:07:12;;;;;;;3.22;2.15;;;11.90;99.90;;;;;;4901674;29;20041;-80
2023/08/30 06:09:37;;;;;;;2.55;2.35;;;12.10;99.90;;;;;;4897908;29;20048;-81
2023/08/30 06:12:04;;;;;;;2.85;2.65;;;12.30;99.90;;;;;;4902130;29;20045;-81
2023/08/30 06:14:30;;;;;;;2.40;1.95;;;12.60;99.90;;;;;;4897312;29;20113;-81
2023/08/30 06:16:55;;;;;;;2.50;2.30;;;12.90;99.90;;;;;;4907325;29;20041;-81
2023/08/30 06:19:21;;;;;;;2.50;2.30;;;13.10;99.90;;;;;;4896112;29;20028;-82
2023/08/30 06:21:47;;;;;;;4.88;1.98;;;13.20;99.90;;;;;;4909715;29;20041;-83
2023/08/30 06:24:13;;;;;;;2.47;2.15;;;13.40;99.90;;;;;;4899134;29;20044;-81
2023/08/30 06:26:39;;;;;;;5.88;2.30;;;13.50;99.90;;;;;;4910466;29;20032;-82
2023/08/30 06:29:04;;;;;;;2.78;2.38;;;13.70;99.90;;;;;;4894166;29;20110;-82
2023/08/30 06:31:32;;;;;;;2.60;2.40;;;13.80;99.90;;;;;;4895620;29;20041;-80
2023/08/30 06:33:57;;;;;;;2.95;2.65;;;14.10;99.90;;;;;;4899127;29;20083;-81
2023/08/30 06:36:23;;;;;;;2.25;2.05;;;14.30;99.90;;;;;;4900025;29;20643;-82
2023/08/30 06:38:50;;;;;;;6.30;2.40;;;14.60;99.90;;;;;;4898976;29;20036;-80
2023/08/30 06:41:16;;;;;;;5.18;2.45;;;15.00;99.90;;;;;;4892906;29;20043;-81
2023/08/30 06:43:41;;;;;;;3.58;2.47;;;15.20;99.90;;;;;;4905060;29;20123;-83
2023/08/30 06:46:07;;;;;;;3.40;2.33;;;15.40;99.90;;;;;;4899408;29;20695;-80
2023/08/30 06:48:33;;;;;;;2.65;2.35;;;15.50;99.90;;;;;;4910263;29;20052;-80
2023/08/30 06:50:59;;;;;;;3.45;2.60;;;15.60;99.90;;;;;;4891720;29;20036;-80
2023/08/30 06:53:28;;;;;;;3.92;3.17;;;15.60;99.90;;;;;;4901358;29;20139;-80
2023/08/30 06:56:00;;;;;;;3.78;3.45;;;15.40;99.90;;;;;;4896819;29;20542;-80
2023/08/30 06:58:26;;;;;;;5.47;3.80;;;15.00;99.90;;;;;;4912380;29;20020;-82
2023/08/30 07:00:53;;;;;;;3.40;3.10;;;14.80;99.90;;;;;;4890172;29;20623;-82
2023/08/30 07:03:19;;;;;;;2.92;2.70;;;14.70;99.90;;;;;;4896478;29;20033;-81
2023/08/30 07:05:47;;;;;;;2.67;2.45;;;14.70;99.90;;;;;;4899057;29;20059;-79
2023/08/30 07:08:14;;;;;;;4.43;3.03;;;14.70;99.90;;;;;;4908061;29;20059;-79
2023/08/30 07:10:40;;;;;;;3.47;3.17;;;14.80;99.90;;;;;;4897226;29;20049;-80
2023/08/30 07:13:10;;;;;;;3.47;3.17;;;14.90;99.90;;;;;;4896505;29;20025;-81
2023/08/30 07:15:37;;;;;;;2.88;2.67;;;15.00;99.90;;;;;;4902810;29;20051;-79
2023/08/30 07:18:03;;;;;;;3.38;3.05;;;15.20;99.90;;;;;;4901994;29;20037;-80
2023/08/30 07:20:29;;;;;;;3.47;3.17;;;15.30;99.90;;;;;;4916597;29;20032;-80
2023/08/30 07:22:55;;;;;;;4.10;2.92;;;15.50;99.90;;;;;;4895625;29;20040;-82
2023/08/30 07:25:21;;;;;;;3.65;3.17;;;15.60;99.90;;;;;;4896732;29;20037;-80
2023/08/30 07:27:46;;;;;;;3.20;3.00;;;15.80;99.90;;;;;;4904864;29;20033;-79
2023/08/30 07:30:12;;;;;;;4.45;3.05;;;16.00;99.90;;;;;;4895956;29;20060;-80
2023/08/30 07:32:40;;;;;;;4.70;2.97;;;16.20;99.90;;;;;;4906772;29;20127;-80
2023/08/30 07:35:06;;;;;;;5.75;2.33;;;16.30;99.90;;;;;;4890981;29;20044;-78
2023/08/30 07:37:32;;;;;;;4.70;2.50;;;16.50;99.90;;;;;;4895872;29;20040;-79
2023/08/30 07:39:58;;;;;;;3.42;2.38;;;16.60;99.90;;;;;;4891932;29;20844;-80
2023/08/30 07:42:24;;;;;;;2.38;2.15;;;16.60;99.90;;;;;;4898972;29;20049;-80
2023/08/30 07:44:49;;;;;;;1.67;1.58;;;16.50;99.90;;;;;;4887253;29;20036;-82
2023/08/30 07:47:15;;;;;;;2.97;2.65;;;16.40;99.90;;;;;;4893469;29;20037;-82
2023/08/30 07:49:41;;;;;;;2.42;2.22;;;16.40;99.90;;;;;;4887641;29;20501;-82
2023/08/30 07:52:10;;;;;;;2.22;2.08;;;16.40;99.90;;;;;;4910563;29;20048;-80
2023/08/30 07:54:38;;;;;;;2.20;2.10;;;16.50;99.90;;;;;;4892557;29;20109;-81
2023/08/30 07:57:04;;;;;;;1.70;1.60;;;16.60;99.90;;;;;;4910384;29;20040;-81
2023/08/30 07:59:32;;;;;;;2.20;2.00;;;16.60;99.90;;;;;;4897447;29;20425;-80
2023/08/30 08:01:58;;;;;;;2.08;1.88;;;16.60;99.90;;;;;;4911868;29;20289;-80
2023/08/30 08:04:24;;;;;;;3.30;3.00;;;16.60;99.90;;;;;;4891806;29;20140;-80
2023/08/30 08:06:49;;;;;;;4.93;3.97;;;16.50;99.90;;;;;;4901883;29;20037;-80
2023/08/30 08:09:15;;;;;;;3.42;3.13;;;16.50;99.90;;;;;;4891686;29;20169;-80
2023/08/30 08:11:43;;;;;;;8.30;4.85;;;16.60;99.90;;;;;;4898310;29;20534;-81
2023/08/30 08:14:12;;;;;;;5.45;4.78;;;16.60;99.90;;;;;;4895330;29;20537;-80
2023/08/30 08:16:38;;;;;;;5.63;4.80;;;16.60;99.90;;;;;;4891466;29;20089;-79
2023/08/30 08:19:04;;;;;;;5.43;4.93;;;16.70;99.90;;;;;;4890772;29;20035;-80
2023/08/30 08:21:30;;;;;;;7.72;4.88;;;16.70;99.90;;;;;;4903493;29;20092;-81
2023/08/30 08:23:55;;;;;;;5.25;4.75;;;16.60;99.90;;;;;;4892726;29;20506;-80
2023/08/30 08:26:21;;;;;;;6.75;5.10;;;16.40;99.90;;;;;;4902777;29;20522;-80
2023/08/30 08:28:47;;;;;;;6.20;5.53;;;16.50;99.90;;;;;;4890985;29;20044;-80
2023/08/30 08:31:13;;;;;;;6.13;5.50;;;16.50;99.90;;;;;;4915374;29;20074;-81
2023/08/30 08:33:40;;;;;;;6.10;5.50;;;16.50;99.90;;;;;;4895395;29;20041;-80
2023/08/30 08:36:06;;;;;;;5.68;5.18;;;16.70;99.90;;;;;;4896986;29;20031;-80
2023/08/30 08:38:32;;;;;;;7.25;5.75;;;16.70;99.90;;;;;;4900999;29;20393;-79
2023/08/30 08:41:12;;;;;;;7.68;5.25;;;16.70;99.90;;;;;;4907630;29;20044;-80
2023/08/30 08:43:40;;;;;;;6.22;5.63;;;16.70;99.90;;;;;;4899340;29;20398;-80
2023/08/30 08:46:06;;;;;;;5.65;5.10;;;16.70;99.90;;;;;;4901116;29;20036;-80
2023/08/30 08:48:40;;;;;;;6.63;5.85;;;16.70;99.90;;;;;;4899007;29;20576;-80
2023/08/30 08:51:06;;;;;;;4.32;3.45;;;16.70;99.90;;;;;;4908434;29;20041;-80
2023/08/30 08:53:51;;;;;;;5.28;4.70;;;16.80;99.90;;;;;;4894994;29;20060;-80
2023/08/30 08:56:18;;;;;;;5.00;4.50;;;16.80;99.90;;;;;;4898894;29;20041;-80
2023/08/30 08:58:44;;;;;;;4.18;3.78;;;16.70;99.90;;;;;;4893564;29;20113;-78
2023/08/30 09:01:10;;;;;;;5.20;3.60;;;16.80;99.90;;;;;;4912242;29;20045;-79
2023/08/30 09:03:37;;;;;;;5.68;3.83;;;16.80;99.90;;;;;;4903014;29;20172;-79
2023/08/30 09:06:04;;;;;;;5.53;3.30;;;16.80;99.90;;;;;;4900015;29;20069;-80
2023/08/30 09:08:29;;;;;;;3.40;3.17;;;16.80;99.90;;;;;;4893993;29;20041;-80
2023/08/30 09:10:55;;;;;;;3.50;3.17;;;16.70;99.90;;;;;;4895385;29;20805;-80
2023/08/30 09:13:22;;;;;;;4.93;3.75;;;16.70;99.90;;;;;;4902907;29;20100;-81
2023/08/30 09:15:49;;;;;;;4.80;3.80;;;16.70;99.90;;;;;;4896331;29;20051;-79
2023/08/30 09:18:33;;;;;;;4.22;3.80;;;16.60;99.90;;;;;;4895394;29;20060;-81
2023/08/30 09:21:06;;;;;;;5.30;4.45;;;16.60;99.90;;;;;;4892478;29;20037;-80
2023/08/30 09:24:06;;;;;;;3.63;2.72;;;16.80;99.90;;;;;;4895139;29;20048;-80
2023/08/30 09:26:34;;;;;;;3.47;3.15;;;17.00;99.90;;;;;;4898342;29;20553;-81
2023/08/30 09:29:06;;;;;;;2.67;2.47;;;17.10;99.90;;;;;;4892555;29;20117;-80
2023/08/30 09:31:40;;;;;;;6.28;3.63;;;17.10;99.90;;;;;;4894731;29;20040;-81
2023/08/30 09:34:06;;;;;;;4.07;3.45;;;17.20;99.90;;;;;;4895240;29;20487;-80
2023/08/30 09:36:42;;;;;;;5.80;3.33;;;17.20;99.90;;;;;;4894909;29;20083;-80
2023/08/30 09:39:09;;;;;;;4.10;3.70;;;17.20;99.90;;;;;;4890491;29;20067;-81
2023/08/30 09:41:56;;;;;;;4.90;3.60;;;17.10;99.90;;;;;;4890454;29;20055;-80
2023/08/30 09:44:22;;;;;;;4.68;4.10;;;17.00;99.90;;;;;;4892160;29;20040;-80
2023/08/30 09:46:52;;;;;;;6.03;3.60;;;17.00;99.90;;;;;;4896976;29;20477;-81
2023/08/30 09:49:23;;;;;;;6.55;3.80;;;17.00;99.90;;;;;;4892755;29;20131;-81
2023/08/30 09:51:51;;;;;;;4.53;3.13;;;16.90;99.90;;;;;;4897965;29;20041;-80
2023/08/30 09:54:21;;;;;;;4.90;3.13;;;17.10;99.90;;;;;;4897707;29;20043;-79
2023/08/30 09:56:47;;;;;;;3.50;2.80;;;17.30;99.90;;;;;;4895950;29;20123;-81
2023/08/30 09:59:14;;;;;;;3.88;2.85;;;17.50;99.90;;;;;;4893155;29;20037;-80
2023/08/30 10:01:43;;;;;;;4.85;3.17;;;17.50;99.90;;;;;;4895833;29;20092;-80
2023/08/30 10:04:09;;;;;;;3.63;2.88;;;17.80;99.90;;;;;;4894893;29;20036;-81
2023/08/30 10:06:38;;;;;;;2.67;2.33;;;18.00;99.90;;;;;;4900014;29;20056;-80
2023/08/30 10:09:07;;;;;;;4.20;3.35;;;18.30;99.90;;;;;;4890527;29;20099;-78
2023/08/30 10:11:36;;;;;;;4.03;2.90;;;18.40;99.90;;;;;;4897312;29;20036;-80
2023/08/30 10:14:08;;;;;;;2.85;2.05;;;18.60;99.90;;;;;;4897994;29;20032;-81
2023/08/30 10:16:43;;;;;;;3.40;2.63;;;18.60;99.90;;;;;;4892536;29;20040;-82
2023/08/30 10:19:24;;;;;;;1.50;1.40;;;18.70;99.90;;;;;;4884468;29;20049;-81
2023/08/30 10:22:04;;;;;;;2.22;1.83;;;18.70;99.90;;;;;;4897910;29;20081;-80
2023/08/30 10:24:39;;;;;;;2.47;2.03;;;18.70;99.90;;;;;;4897870;29;20040;-81
2023/08/30 10:27:06;;;;;;;3.47;2.13;;;18.70;99.90;;;;;;4901227;29;20466;-80
2023/08/30 10:29:34;;;;;;;2.70;2.47;;;18.60;99.90;;;;;;4893654;29;20443;-80
2023/08/30 10:32:07;;;;;;;2.40;2.20;;;18.60;99.90;;;;;;4911394;29;20060;-81
2023/08/30 10:34:36;;;;;;;2.45;2.08;;;18.60;99.90;;;;;;4890054;29;20059;-80
2023/08/30 10:37:07;;;;;;;4.13;2.10;;;18.60;99.90;;;;;;4897750;29;20562;-80
2023/08/30 10:39:35;;;;;;;3.42;2.38;;;18.60;99.90;;;;;;4902755;29;20124;-80
2023/08/30 10:42:06;;;;;;;2.42;2.22;;;18.60;99.90;;;;;;4901513;29;20413;-80
2023/08/30 10:44:32;;;;;;;2.50;2.30;;;18.50;99.90;;;;;;4905023;29;20091;-82
2023/08/30 10:47:02;;;;;;;2.40;2.10;;;18.60;99.90;;;;;;4895897;29;20033;-81
2023/08/30 10:49:28;;;;;;;2.40;2.20;;;18.50;99.90;;;;;;4897150;29;20067;-80
2023/08/30 10:51:57;;;;;;;2.70;2.40;;;18.30;99.90;;;;;;4899680;29;20037;-79
2023/08/30 10:54:23;;;;;;;3.08;2.05;;;18.30;99.90;;;;;;4917391;29;20044;-80
2023/08/30 10:57:01;;;;;;;2.05;1.80;;;18.40;99.90;;;;;;4913301;29;20498;-79
2023/08/30 10:59:29;;;;;;;1.85;1.73;;;18.50;99.90;;;;;;4905328;29;20029;-80
2023/08/30 11:01:55;;;;;;;1.85;1.75;;;18.60;99.90;;;;;;4899413;29;20051;-80
2023/08/30 11:04:22;;;;;;;3.67;1.75;;;18.70;99.90;;;;;;4902517;29;20037;-80
2023/08/30 11:06:51;;;;;;;1.67;1.55;;;18.70;99.90;;;;;;4900378;29;20076;-80
2023/08/30 11:09:22;;;;;;;3.00;2.50;;;18.80;99.90;;;;;;4901447;29;20107;-82
2023/08/30 11:11:49;;;;;;;3.72;2.00;;;18.80;99.90;;;;;;4899723;29;20045;-79
2023/08/30 11:14:15;;;;;;;1.90;1.70;;;18.80;99.90;;;;;;4897830;29;20033;-80
2023/08/30 11:16:42;;;;;;;2.35;2.13;;;18.70;99.90;;;;;;4903216;29;20033;-81
2023/08/30 11:19:09;;;;;;;2.33;1.92;;;18.80;99.90;;;;;;4901072;29;20398;-80
2023/08/30 11:21:40;;;;;;;2.20;1.60;;;18.80;99.90;;;;;;4904279;29;20068;-81
2023/08/30 11:24:07;;;;;;;2.28;1.75;;;19.00;99.90;;;;;;4898137;29;20394;-79
2023/08/30 11:26:33;;;;;;;2.00;1.90;;;19.10;99.90;;;;;;4893732;29;20036;-81
2023/08/30 11:29:07;;;;;;;2.28;1.65;;;19.10;99.90;;;;;;4890131;29;20056;-80
2023/08/30 11:31:33;;;;;;;1.98;1.88;;;19.10;99.90;;;;;;4893532;29;20128;-79
2023/08/30 11:34:00;;;;;;;3.58;2.20;;;19.20;99.90;;;;;;4897792;29;20047;-79
2023/08/30 11:36:31;;;;;;;2.28;2.10;;;19.30;99.90;;;;;;4896936;29;20053;-82
2023/08/30 11:38:57;;;;;;;2.50;2.30;;;19.40;99.90;;;;;;4899053;29;20052;-80
2023/08/30 11:41:24;;;;;;;3.53;2.25;;;19.60;99.90;;;;;;4904015;29;20034;-82
2023/08/30 11:43:54;;;;;;;2.03;1.90;;;19.60;99.90;;;;;;4914874;29;20092;-80
2023/08/30 11:46:21;;;;;;;1.90;1.73;;;19.60;99.90;;;;;;4904345;29;20051;-81
2023/08/30 11:48:49;;;;;;;3.17;1.58;;;19.70;99.90;;;;;;4901964;29;20092;-80
2023/08/30 11:51:15;;;;;;;1.88;1.77;;;19.70;99.90;;;;;;4896723;29;20105;-80
2023/08/30 11:54:02;;;;;;;1.75;1.52;;;19.60;99.90;;;;;;4896138;29;20233;-80
2023/08/30 11:56:29;;;;;;;1.50;1.40;;;19.70;99.90;;;;;;4918871;29;20095;-81
2023/08/30 11:58:55;;;;;;;1.50;1.40;;;19.70;99.90;;;;;;4904165;29;20036;-81
2023/08/30 12:01:21;;;;;;;1.70;1.60;;;19.70;99.90;;;;;;4898503;29;20033;-81
2023/08/30 12:03:50;;;;;;;2.25;1.50;;;19.80;99.90;;;;;;4902755;29;20028;-82
2023/08/30 12:06:16;;;;;;;2.05;1.83;;;19.80;99.90;;;;;;4917102;29;20047;-81
2023/08/30 12:08:42;;;;;;;2.03;1.75;;;19.80;99.90;;;;;;4899965;29;20029;-81
2023/08/30 12:11:20;;;;;;;2.78;1.50;;;19.80;99.90;;;;;;4892901;29;20400;-79
2023/08/30 12:13:47;;;;;;;2.10;1.60;;;19.80;99.90;;;;;;4901011;29;20507;-80
2023/08/30 12:16:17;;;;;;;1.75;1.60;;;19.80;99.90;;;;;;4899271;29;20415;-80
2023/08/30 12:18:44;;;;;;;2.95;1.65;;;19.80;99.90;;;;;;4902753;29;20054;-78
2023/08/30 12:21:09;;;;;;;2.22;1.33;;;19.80;99.90;;;;;;4892879;29;20033;-80
2023/08/30 12:23:36;;;;;;;2.30;1.40;;;19.80;99.90;;;;;;4903729;29;20107;-81
2023/08/30 12:26:06;;;;;;;1.48;1.38;;;19.80;99.90;;;;;;4900629;29;20072;-80
2023/08/30 12:28:34;;;;;;;1.50;1.40;;;19.80;99.90;;;;;;4904447;29;20036;-82
2023/08/30 12:31:01;;;;;;;2.97;1.30;;;19.80;99.90;;;;;;4895368;29;20131;-80
2023/08/30 12:33:31;;;;;;;1.38;1.27;;;19.80;99.90;;;;;;4905626;29;20536;-82
2023/08/30 12:35:57;;;;;;;3.92;1.50;;;19.60;99.90;;;;;;4904124;29;20032;-77
2023/08/30 12:38:24;;;;;;;1.38;1.10;;;19.60;99.90;;;;;;4896857;29;20048;-79
2023/08/30 12:40:51;;;;;;;2.28;1.23;;;19.50;99.90;;;;;;4896651;29;20025;-81
2023/08/30 12:43:18;;;;;;;1.52;1.30;;;19.40;99.90;;;;;;4902937;29;20510;-76
2023/08/30 12:45:44;;;;;;;1.30;1.20;;;19.40;99.90;;;;;;4896851;29;20490;-81
2023/08/30 12:48:12;;;;;;;1.25;1.10;;;19.30;99.90;;;;;;4903177;29;20036;-80
2023/08/30 12:50:38;;;;;;;1.10;1.10;;;19.30;99.90;;;;;;4899250;29;20588;-81
2023/08/30 12:53:08;;;;;;;1.40;1.30;;;19.20;99.90;;;;;;4902495;29;20036;-82